Time;durP1;ratioP1;P1;durP2;ratioP2;P2;SDS_P1;SDS_P2;PMS_P1;PMS_P2;Temp;Humidity;BMP_temperature;BMP_pressure;BME280_temperature;BME280_humidity;BME280_pressure;Samples;Min_cycle;Max_cycle;Signal;HPM_P1;HPM_P2
2021/08/05 00:02:11;;;;;;;2.45;2.05;;;16.10;99.90;;;14.45;100.00;100852.41;3526623;39;101616;-82
2021/08/05 00:04:38;;;;;;;2.30;2.00;;;16.10;99.90;;;14.45;100.00;100855.09;3526027;39;100540;-81
2021/08/05 00:07:06;;;;;;;2.05;1.85;;;16.20;99.90;;;14.46;100.00;100846.03;3529656;39;100131;-80
2021/08/05 00:09:34;;;;;;;2.70;1.98;;;16.20;99.90;;;14.40;100.00;100841.28;3527784;39;100056;-80
2021/08/05 00:12:01;;;;;;;2.10;1.52;;;16.20;99.90;;;14.38;100.00;100852.19;3521669;39;103578;-81
2021/08/05 00:14:30;;;;;;;1.40;1.25;;;16.20;99.90;;;14.40;100.00;100854.75;3536573;39;100711;-82
2021/08/05 00:16:58;;;;;;;2.78;1.58;;;16.30;99.90;;;14.48;100.00;100865.50;3536378;39;100104;-81
2021/08/05 00:19:25;;;;;;;2.33;2.05;;;16.90;99.90;;;14.46;100.00;100866.72;3534690;39;103112;-82
2021/08/05 00:21:52;;;;;;;1.80;1.70;;;16.30;99.90;;;14.45;100.00;100863.19;3541005;39;101402;-81
2021/08/05 00:24:19;;;;;;;2.78;2.20;;;16.30;99.90;;;14.46;100.00;100842.47;3538791;39;101696;-81
2021/08/05 00:26:46;;;;;;;1.85;1.75;;;16.30;99.90;;;14.38;100.00;100827.97;3536587;39;99943;-81
2021/08/05 00:29:13;;;;;;;2.35;1.70;;;17.30;99.90;;;14.44;100.00;100833.72;3535156;39;103089;-82
2021/08/05 00:31:42;;;;;;;4.38;2.20;;;16.30;99.90;;;14.37;100.00;100838.91;3525318;39;102772;-82
2021/08/05 00:34:09;;;;;;;2.35;1.60;;;16.40;99.90;;;14.35;100.00;100827.47;3524507;39;102774;-80
2021/08/05 00:36:37;;;;;;;5.38;1.52;;;16.30;99.90;;;14.42;100.00;100819.59;3515591;39;100034;-81
2021/08/05 00:39:04;;;;;;;2.63;2.10;;;16.40;99.90;;;14.36;100.00;100832.66;3515746;39;103849;-81
2021/08/05 00:41:32;;;;;;;4.38;1.85;;;17.20;99.90;;;14.32;100.00;100833.19;3516249;39;103427;-81
2021/08/05 00:44:01;;;;;;;1.88;1.42;;;16.30;99.90;;;14.35;100.00;100841.75;3521117;39;102624;-79
2021/08/05 00:46:29;;;;;;;2.38;2.17;;;16.30;99.90;;;14.32;100.00;100850.19;3536205;39;100333;-80
2021/08/05 00:48:58;;;;;;;1.77;1.67;;;16.30;99.90;;;14.35;100.00;100835.53;3536632;39;101043;-81
2021/08/05 00:51:25;;;;;;;3.80;1.98;;;16.30;99.90;;;14.34;100.00;100858.09;3536330;39;101329;-81
2021/08/05 00:53:52;;;;;;;2.85;2.38;;;16.40;99.90;;;14.23;100.00;100882.63;3534110;39;102339;-81
2021/08/05 00:56:20;;;;;;;3.25;2.65;;;16.30;99.90;;;14.42;100.00;100920.06;3535494;39;100138;-80
2021/08/05 00:58:47;;;;;;;2.65;2.45;;;16.30;99.90;;;14.45;100.00;100911.66;3535688;39;100985;-82
2021/08/05 01:01:19;;;;;;;2.78;2.55;;;16.20;99.90;;;14.47;100.00;100893.44;3537833;39;101275;-82
2021/08/05 01:03:54;;;;;;;3.15;2.85;;;15.90;99.90;;;14.55;100.00;100887.22;3540643;39;100082;-81
2021/08/05 01:06:37;;;;;;;2.90;2.45;;;16.20;99.90;;;14.57;100.00;100861.81;3539014;39;100038;-80
2021/08/05 01:09:16;;;;;;;2.80;2.53;;;16.20;99.90;;;14.60;100.00;100852.53;3534237;39;102810;-82
2021/08/05 01:11:51;;;;;;;3.10;2.72;;;16.50;99.90;;;14.53;100.00;100841.63;3535002;39;103187;-82
2021/08/05 01:14:23;;;;;;;3.92;2.60;;;16.60;99.90;;;14.41;100.00;100842.13;3527551;39;102694;-81
2021/08/05 01:16:52;;;;;;;5.32;2.53;;;16.40;99.90;;;14.14;100.00;100867.50;3537217;39;99845;-82
2021/08/05 01:19:32;;;;;;;2.72;2.05;;;17.00;99.90;;;14.09;100.00;100908.38;3528154;39;102977;-82
2021/08/05 01:22:12;;;;;;;3.00;2.47;;;16.20;99.90;;;14.01;100.00;100930.72;3535838;39;103443;-84
2021/08/05 01:24:55;;;;;;;3.75;2.55;;;16.00;99.90;;;13.91;100.00;100953.41;3535326;39;102370;-83
2021/08/05 01:27:27;;;;;;;3.97;2.70;;;15.90;99.90;;;13.86;100.00;100983.47;3526918;39;100009;-81
2021/08/05 01:29:57;;;;;;;3.00;2.60;;;15.80;99.90;;;13.74;100.00;101022.41;3529286;39;102530;-83
2021/08/05 01:32:26;;;;;;;4.03;2.88;;;15.70;99.90;;;13.80;100.00;101070.22;3529795;39;102707;-83
2021/08/05 01:34:55;;;;;;;2.97;2.20;;;15.60;99.90;;;13.70;100.00;101093.69;3520569;39;102254;-82
2021/08/05 01:37:24;;;;;;;2.58;2.38;;;15.60;99.90;;;13.72;100.00;101129.34;3518214;39;99985;-82
2021/08/05 01:39:54;;;;;;;3.50;2.88;;;15.60;99.90;;;13.73;100.00;101149.81;3521252;39;103533;-80
2021/08/05 01:42:24;;;;;;;3.78;3.25;;;15.50;99.90;;;13.70;100.00;101170.84;3536736;39;101054;-82
2021/08/05 01:44:54;;;;;;;4.70;2.90;;;15.40;99.90;;;13.66;100.00;101183.75;3535925;39;102632;-83
2021/08/05 01:47:22;;;;;;;4.38;3.33;;;16.10;99.90;;;13.63;100.00;101192.13;3535727;39;100098;-83
2021/08/05 01:49:51;;;;;;;2.83;2.58;;;16.10;99.90;;;13.56;100.00;101202.66;3533476;39;103598;-81
2021/08/05 01:52:19;;;;;;;3.85;3.15;;;15.30;99.90;;;13.51;100.00;101217.56;3526829;39;101047;-80
2021/08/05 01:54:47;;;;;;;7.97;2.88;;;15.70;99.90;;;13.44;100.00;101257.66;3525257;39;102874;-81
2021/08/05 01:57:16;;;;;;;3.35;3.05;;;15.20;99.90;;;13.43;100.00;101292.78;3528392;39;100047;-82
2021/08/05 01:59:45;;;;;;;5.47;3.27;;;15.10;99.90;;;13.40;100.00;101301.13;3546364;39;102229;-81
2021/08/05 02:02:14;;;;;;;2.87;2.43;;;15.10;99.90;;;13.38;100.00;101312.03;3529020;39;101968;-83
2021/08/05 02:05:00;;;;;;;3.20;2.90;;;15.10;99.90;;;13.40;100.00;101314.56;3525201;39;102336;-85
2021/08/05 02:07:31;;;;;;;4.93;3.93;;;15.00;99.90;;;13.40;100.00;101326.19;3523636;39;100093;-84
2021/08/05 02:10:04;;;;;;;3.53;3.00;;;15.00;99.90;;;13.43;100.00;101338.47;3515677;39;103190;-81
2021/08/05 02:12:39;;;;;;;5.97;3.47;;;15.40;99.90;;;13.45;100.00;101348.09;3533267;39;103744;-83
2021/08/05 02:15:10;;;;;;;3.97;3.43;;;15.00;99.90;;;13.48;100.00;101344.22;3536151;39;102546;-83
2021/08/05 02:17:42;;;;;;;3.80;3.40;;;14.30;99.90;;;13.51;100.00;101349.31;3526460;39;100051;-81
2021/08/05 02:20:13;;;;;;;3.40;2.87;;;15.00;99.90;;;13.55;100.00;101346.19;3525008;39;102945;-81
2021/08/05 02:22:44;;;;;;;3.47;3.07;;;15.00;99.90;;;13.54;100.00;101317.59;3526748;39;101409;-83
2021/08/05 02:25:13;;;;;;;3.47;3.10;;;15.30;99.90;;;13.63;100.00;101313.97;3533809;39;102480;-81
2021/08/05 02:27:46;;;;;;;5.75;3.65;;;15.10;99.90;;;13.63;100.00;101302.38;3519310;39;100322;-83
2021/08/05 02:30:16;;;;;;;3.40;3.10;;;15.10;99.90;;;13.70;100.00;101287.34;3514915;39;102706;-82
2021/08/05 02:32:45;;;;;;;5.80;3.60;;;15.30;99.90;;;13.76;100.00;101275.09;3514810;39;102951;-82
2021/08/05 02:35:14;;;;;;;3.10;2.80;;;15.40;99.90;;;13.80;100.00;101252.28;3516643;39;100236;-81
2021/08/05 02:37:43;;;;;;;3.83;3.30;;;15.20;99.90;;;13.80;100.00;101241.53;3516953;39;100006;-82
2021/08/05 02:40:12;;;;;;;7.27;3.93;;;15.20;99.90;;;13.83;100.00;101242.06;3516450;39;100935;-81
2021/08/05 02:42:40;;;;;;;3.80;3.40;;;15.20;99.90;;;13.82;100.00;101244.91;3516808;39;100883;-82
2021/08/05 02:45:09;;;;;;;4.27;2.87;;;15.30;99.90;;;13.83;100.00;101207.09;3540172;39;102391;-82
2021/08/05 02:47:38;;;;;;;3.25;2.65;;;15.30;99.90;;;13.88;100.00;101187.75;3520051;39;100020;-82
2021/08/05 02:50:08;;;;;;;5.37;3.50;;;15.30;99.90;;;13.91;100.00;101184.75;3523248;39;102854;-82
2021/08/05 02:52:36;;;;;;;4.53;3.38;;;15.40;99.90;;;13.93;100.00;101167.47;3518787;39;101033;-82
2021/08/05 02:55:05;;;;;;;4.32;3.13;;;16.50;99.90;;;13.89;100.00;101160.72;3516695;39;102636;-82
2021/08/05 02:57:34;;;;;;;3.45;2.50;;;15.50;99.90;;;13.84;100.00;101175.66;3517417;39;99924;-80
2021/08/05 03:00:01;;;;;;;3.27;2.57;;;15.50;99.90;;;13.79;100.00;101191.41;3516523;39;100286;-82
2021/08/05 03:02:29;;;;;;;3.58;2.65;;;15.60;99.90;;;13.78;100.00;101187.88;3522696;39;103465;-81
2021/08/05 03:04:58;;;;;;;3.50;3.20;;;15.50;99.90;;;13.83;100.00;101225.06;3515558;39;102590;-82
2021/08/05 03:07:26;;;;;;;3.83;3.43;;;15.50;99.90;;;13.84;100.00;101256.34;3528774;39;99998;-80
2021/08/05 03:09:53;;;;;;;7.07;3.70;;;15.50;99.90;;;13.83;100.00;101265.44;3520261;39;103062;-80
2021/08/05 03:12:20;;;;;;;3.30;3.00;;;15.50;99.90;;;13.86;100.00;101251.63;3526448;39;101052;-80
2021/08/05 03:14:47;;;;;;;3.03;2.72;;;15.50;99.90;;;13.86;100.00;101268.63;3525441;39;100730;-82
2021/08/05 03:17:14;;;;;;;4.25;2.83;;;15.70;99.90;;;13.90;100.00;101274.53;3525797;39;99950;-82
2021/08/05 03:19:41;;;;;;;4.95;3.35;;;15.60;99.90;;;13.91;100.00;101273.56;3526890;39;101000;-83
2021/08/05 03:22:09;;;;;;;3.58;3.17;;;15.60;99.90;;;13.97;100.00;101244.16;3527156;39;100969;-83
2021/08/05 03:24:36;;;;;;;3.10;2.78;;;15.50;99.90;;;14.02;100.00;101284.91;3526557;39;100638;-82
2021/08/05 03:27:04;;;;;;;6.03;3.00;;;15.60;99.90;;;13.95;100.00;101269.56;3540112;39;99978;-82
2021/08/05 03:29:31;;;;;;;3.10;2.80;;;15.70;99.90;;;14.07;100.00;101267.47;3537737;39;100253;-82
2021/08/05 03:31:58;;;;;;;3.05;2.75;;;15.60;99.90;;;13.95;100.00;101248.88;3536988;39;101387;-81
2021/08/05 03:34:26;;;;;;;4.63;3.43;;;16.50;99.90;;;13.94;100.00;101238.28;3537339;39;100509;-83
2021/08/05 03:36:53;;;;;;;3.00;2.70;;;15.60;99.90;;;13.89;100.00;101249.50;3537612;39;99971;-81
2021/08/05 03:39:21;;;;;;;3.83;3.30;;;16.10;99.90;;;13.90;100.00;101263.78;3526110;39;103074;-81
2021/08/05 03:41:49;;;;;;;5.88;3.35;;;15.60;99.90;;;13.87;100.00;101261.41;3535058;39;102099;-81
2021/08/05 03:44:16;;;;;;;3.95;3.33;;;15.70;99.90;;;13.85;100.00;101309.13;3536120;39;100176;-81
2021/08/05 03:46:44;;;;;;;3.97;3.03;;;15.70;99.90;;;13.95;100.00;101374.50;3536556;39;100129;-81
2021/08/05 03:49:12;;;;;;;4.32;3.40;;;15.60;99.90;;;13.96;100.00;101390.50;3536799;39;101026;-81
2021/08/05 03:51:39;;;;;;;3.58;3.20;;;15.70;99.90;;;13.97;100.00;100878.22;3530555;39;101577;-82
2021/08/05 03:54:06;;;;;;;3.90;3.22;;;15.60;99.90;;;13.90;100.00;100908.66;3516748;39;102745;-82
2021/08/05 03:56:34;;;;;;;4.57;3.50;;;15.70;99.90;;;13.93;100.00;100937.94;3526893;39;99981;-81
2021/08/05 03:59:02;;;;;;;3.95;3.05;;;16.50;99.90;;;13.93;100.00;100952.25;3525918;39;101157;-82
2021/08/05 04:01:29;;;;;;;3.28;2.35;;;16.40;99.90;;;13.93;100.00;100964.84;3526397;39;101107;-81
2021/08/05 04:03:56;;;;;;;6.60;3.53;;;15.60;99.90;;;13.95;100.00;100941.31;3526287;39;100788;-83
2021/08/05 04:06:23;;;;;;;5.00;3.55;;;15.60;99.90;;;13.94;100.00;100953.06;3526308;39;100400;-82
2021/08/05 04:08:50;;;;;;;5.10;3.22;;;15.70;99.90;;;14.03;100.00;100955.63;3545712;39;101407;-82
2021/08/05 04:11:17;;;;;;;4.57;3.67;;;15.80;99.90;;;13.92;100.00;100933.56;3547576;39;101931;-83
2021/08/05 04:13:46;;;;;;;3.78;3.20;;;15.60;99.90;;;13.93;100.00;100935.25;3526955;39;102688;-82
2021/08/05 04:16:13;;;;;;;3.63;3.33;;;15.70;99.90;;;13.93;100.00;100917.25;3537488;39;100067;-82
2021/08/05 04:18:40;;;;;;;3.78;3.38;;;15.70;99.90;;;13.93;100.00;100890.34;3536946;39;101320;-81
2021/08/05 04:21:07;;;;;;;3.13;2.92;;;15.80;99.90;;;13.88;100.00;100894.53;3532883;39;101461;-83
2021/08/05 04:23:35;;;;;;;3.80;3.30;;;15.70;99.90;;;13.93;100.00;100892.19;3526648;39;100821;-83
2021/08/05 04:26:02;;;;;;;3.63;2.80;;;15.70;99.90;;;13.91;100.00;100891.53;3527417;39;100257;-81
2021/08/05 04:28:29;;;;;;;6.10;3.47;;;15.70;99.90;;;13.91;100.00;100878.91;3532677;39;101503;-81
2021/08/05 04:30:57;;;;;;;4.10;3.30;;;15.70;99.90;;;14.10;100.00;100874.22;3534765;39;103194;-82
2021/08/05 04:33:25;;;;;;;4.22;3.17;;;15.70;99.90;;;14.20;100.00;100856.94;3534334;39;102507;-83
2021/08/05 04:35:52;;;;;;;4.20;3.78;;;15.70;99.90;;;14.25;100.00;100843.78;3535938;39;100099;-81
2021/08/05 04:38:19;;;;;;;5.82;4.05;;;14.80;99.90;;;14.33;100.00;100806.13;3537215;39;101017;-83
2021/08/05 04:40:46;;;;;;;6.57;3.55;;;15.80;99.90;;;14.34;100.00;100786.22;3531001;39;100828;-80
2021/08/05 04:43:13;;;;;;;3.63;3.20;;;15.80;99.90;;;14.38;100.00;100757.97;3527473;39;100758;-82
2021/08/05 04:45:41;;;;;;;4.43;3.42;;;17.00;99.90;;;14.39;100.00;100761.50;3527343;39;100156;-82
2021/08/05 04:48:10;;;;;;;5.20;3.75;;;15.90;99.90;;;14.45;100.00;100751.94;3527310;39;101261;-82
2021/08/05 04:50:40;;;;;;;5.13;3.35;;;15.90;99.90;;;14.48;100.00;100738.13;3529959;39;103007;-83
2021/08/05 04:53:09;;;;;;;5.47;3.85;;;15.90;99.90;;;14.52;100.00;100716.06;3547218;39;99906;-80
2021/08/05 04:55:36;;;;;;;9.38;4.30;;;17.00;99.90;;;14.62;100.00;100689.78;3526916;39;100837;-84
2021/08/05 04:58:07;;;;;;;4.85;3.70;;;16.10;99.90;;;14.60;100.00;100655.94;3527250;39;100886;-82
2021/08/05 05:00:36;;;;;;;3.63;3.30;;;16.10;99.90;;;14.69;100.00;100618.03;3516094;39;103505;-82
2021/08/05 05:03:04;;;;;;;5.43;4.05;;;16.20;99.90;;;14.70;100.00;100618.88;3526726;39;100323;-83
2021/08/05 05:05:34;;;;;;;4.90;3.78;;;15.20;99.90;;;14.68;100.00;100596.66;3526515;39;100067;-83
2021/08/05 05:08:13;;;;;;;4.88;3.40;;;16.30;99.90;;;14.85;100.00;100575.84;3525975;39;100341;-82
2021/08/05 05:10:40;;;;;;;7.90;3.65;;;16.40;99.90;;;14.93;100.00;100548.88;3526834;39;100976;-81
2021/08/05 05:13:13;;;;;;;5.03;3.88;;;16.50;99.90;;;14.99;100.00;100534.66;3525708;39;100633;-84
2021/08/05 05:15:42;;;;;;;6.25;4.00;;;16.50;99.90;;;14.93;100.00;100509.28;3523824;39;100238;-82
2021/08/05 05:18:09;;;;;;;3.83;3.42;;;16.60;99.90;;;15.09;100.00;100484.03;3525800;39;100560;-83
2021/08/05 05:20:39;;;;;;;3.17;2.85;;;16.70;99.90;;;15.11;100.00;100498.16;3526045;39;100900;-82
2021/08/05 05:23:07;;;;;;;4.50;3.60;;;16.80;99.90;;;15.02;100.00;100473.16;3526001;39;100994;-82
2021/08/05 05:25:35;;;;;;;4.85;3.63;;;16.80;99.90;;;15.09;100.00;100463.31;3527041;39;100266;-83
2021/08/05 05:28:03;;;;;;;4.53;3.35;;;16.90;99.90;;;15.10;100.00;100438.03;3516032;39;103418;-83
2021/08/05 05:30:30;;;;;;;5.00;4.00;;;16.90;99.90;;;15.24;100.00;100425.59;3526801;39;101189;-82
2021/08/05 05:32:58;;;;;;;4.22;3.83;;;17.50;99.90;;;15.29;100.00;100401.63;3539247;39;101464;-83
2021/08/05 05:35:25;;;;;;;3.80;3.30;;;17.20;99.90;;;15.42;100.00;100395.59;3536554;39;100135;-82
2021/08/05 05:37:55;;;;;;;6.30;3.50;;;17.10;99.90;;;15.52;100.00;100385.34;3547430;39;101252;-80
2021/08/05 05:40:24;;;;;;;3.45;3.03;;;17.20;99.90;;;15.55;100.00;100374.22;3536342;39;100629;-82
2021/08/05 05:42:53;;;;;;;4.00;3.15;;;17.30;99.90;;;15.54;100.00;100395.94;3536555;39;100971;-83
2021/08/05 05:45:21;;;;;;;5.18;3.70;;;18.50;99.90;;;15.67;100.00;100382.66;3536105;39;100283;-82
2021/08/05 05:47:49;;;;;;;4.95;3.70;;;17.50;99.90;;;15.79;100.00;100343.38;3536448;39;100858;-82
2021/08/05 05:50:17;;;;;;;4.60;3.28;;;17.60;99.90;;;15.82;100.00;100339.47;3535895;39;101277;-82
2021/08/05 05:52:47;;;;;;;4.32;3.05;;;17.70;99.90;;;15.95;100.00;100342.31;3521530;39;102666;-81
2021/08/05 05:55:17;;;;;;;4.15;3.10;;;18.60;99.90;;;15.93;100.00;100325.47;3525669;39;100228;-84
2021/08/05 05:57:44;;;;;;;4.10;3.17;;;17.90;99.90;;;15.88;100.00;100312.56;3526688;39;102127;-83
2021/08/05 06:00:12;;;;;;;5.55;3.55;;;18.00;99.90;;;15.68;100.00;100312.34;3517023;39;103451;-82
2021/08/05 06:02:39;;;;;;;5.38;3.15;;;18.10;99.90;;;15.84;100.00;100322.03;3526932;39;100364;-81
2021/08/05 06:05:08;;;;;;;7.63;4.00;;;18.20;99.90;;;16.05;100.00;100323.94;3529176;39;99954;-83
2021/08/05 06:07:44;;;;;;;3.78;2.80;;;18.20;99.90;;;16.20;100.00;100329.25;3527679;39;100772;-83
2021/08/05 06:10:15;;;;;;;5.43;3.53;;;18.40;99.90;;;16.30;100.00;100314.41;3528013;39;101660;-82
2021/08/05 06:12:43;;;;;;;3.97;3.20;;;18.50;99.90;;;16.40;100.00;100301.41;3540165;39;100338;-81
2021/08/05 06:15:11;;;;;;;4.38;2.85;;;19.80;99.90;;;17.18;100.00;100285.94;3536676;39;100317;-82
2021/08/05 06:17:40;;;;;;;4.00;2.97;;;18.80;99.90;;;17.15;100.00;100238.50;3536792;39;101027;-84
2021/08/05 06:20:10;;;;;;;3.30;3.00;;;19.00;99.90;;;17.51;100.00;100211.16;3536156;39;101611;-83
2021/08/05 06:22:39;;;;;;;3.67;2.80;;;19.30;99.90;;;17.16;100.00;100180.69;3535743;39;100770;-83
2021/08/05 06:25:09;;;;;;;3.67;3.03;;;19.50;99.90;;;17.50;100.00;100138.31;3516358;39;100184;-82
2021/08/05 06:27:38;;;;;;;4.20;3.45;;;19.70;99.90;;;17.15;100.00;100129.53;3525974;39;101166;-83
2021/08/05 06:30:08;;;;;;;3.13;2.83;;;19.90;99.90;;;16.93;100.00;100117.19;3515854;39;103104;-82
2021/08/05 06:32:35;;;;;;;3.88;2.83;;;20.00;99.90;;;17.08;100.00;100109.72;3526545;39;100726;-81
2021/08/05 06:35:03;;;;;;;5.15;2.55;;;20.10;99.90;;;16.97;100.00;100113.03;3526140;39;100253;-81
2021/08/05 06:37:31;;;;;;;4.03;2.92;;;20.20;99.90;;;17.44;100.00;100109.38;3526401;39;101359;-83
2021/08/05 06:39:59;;;;;;;6.00;3.47;;;20.30;99.90;;;17.06;100.00;100104.53;3526528;39;101479;-83
2021/08/05 06:42:26;;;;;;;2.95;2.65;;;20.40;99.90;;;17.46;100.00;100124.34;3524261;39;102050;-80
2021/08/05 06:44:54;;;;;;;4.18;2.70;;;20.40;99.90;;;17.85;100.00;100125.44;3528634;39;99849;-81
2021/08/05 06:47:21;;;;;;;4.25;3.25;;;20.70;99.90;;;17.07;100.00;100114.31;3525004;39;102876;-83
2021/08/05 06:49:48;;;;;;;3.38;2.65;;;20.60;99.90;;;17.56;100.00;100121.22;3525089;39;102451;-82
2021/08/05 06:52:16;;;;;;;3.03;2.72;;;20.90;99.90;;;17.90;100.00;100133.78;3525921;39;100590;-81
2021/08/05 06:54:43;;;;;;;5.43;3.20;;;21.70;99.90;;;18.36;100.00;100212.25;3527100;39;100120;-80
2021/08/05 06:57:10;;;;;;;6.00;3.20;;;20.90;99.90;;;18.43;100.00;100239.31;3547634;39;100044;-83
2021/08/05 06:59:37;;;;;;;4.03;3.55;;;21.00;99.90;;;17.87;100.00;100307.41;3526730;39;101518;-82
2021/08/05 07:02:06;;;;;;;4.47;3.60;;;21.80;99.90;;;18.16;100.00;100355.81;3526645;39;100541;-81
2021/08/05 07:04:33;;;;;;;3.53;3.22;;;21.30;99.90;;;18.00;100.00;100398.66;3525749;39;100021;-83
2021/08/05 07:07:00;;;;;;;5.40;3.83;;;21.40;99.90;;;17.69;100.00;100407.28;3525742;39;100654;-83
2021/08/05 07:09:27;;;;;;;5.20;3.67;;;21.60;99.90;;;17.42;100.00;100422.53;3525561;39;100263;-81
2021/08/05 07:11:54;;;;;;;3.60;2.92;;;22.60;99.90;;;17.83;100.00;100419.84;3525758;39;100346;-83
2021/08/05 07:14:21;;;;;;;4.60;3.45;;;22.60;99.90;;;17.71;100.00;100443.09;3525010;39;100252;-83
2021/08/05 07:16:48;;;;;;;2.83;2.55;;;21.70;99.90;;;18.18;100.00;100448.50;3523012;39;103994;-81
2021/08/05 07:19:16;;;;;;;3.92;3.25;;;21.70;99.90;;;18.52;100.00;100477.34;3526069;39;101309;-81
2021/08/05 07:21:44;;;;;;;3.42;2.38;;;21.80;99.90;;;18.69;100.00;100534.75;3525800;39;100541;-82
2021/08/05 07:24:12;;;;;;;4.45;3.45;;;21.90;99.90;;;18.17;100.00;100579.56;3525006;39;100243;-81
2021/08/05 07:26:39;;;;;;;4.88;2.92;;;22.30;99.90;;;18.43;100.00;100586.94;3525409;39;100775;-82
2021/08/05 07:29:06;;;;;;;3.63;2.55;;;22.10;99.90;;;18.83;100.00;100619.66;3524656;39;102181;-82
2021/08/05 07:31:33;;;;;;;2.88;2.47;;;21.60;99.90;;;18.43;100.00;100665.50;3524977;39;100499;-81
2021/08/05 07:34:01;;;;;;;4.13;2.72;;;22.40;99.90;;;18.47;100.00;100733.69;3526127;39;100019;-82
2021/08/05 07:36:29;;;;;;;4.35;3.15;;;22.40;99.90;;;19.13;100.00;100799.19;3524122;39;102736;-81
2021/08/05 07:38:57;;;;;;;3.97;2.80;;;22.50;99.90;;;18.74;100.00;100841.28;3526364;39;101376;-84
2021/08/05 07:41:24;;;;;;;2.95;2.70;;;22.60;99.90;;;18.84;100.00;100874.31;3531806;39;100446;-83
2021/08/05 07:43:51;;;;;;;5.95;2.78;;;22.90;99.90;;;19.31;100.00;100881.69;3525796;39;100192;-81
2021/08/05 07:46:18;;;;;;;3.38;3.03;;;22.80;99.90;;;19.42;100.00;100868.59;3515586;39;103366;-83
2021/08/05 07:48:45;;;;;;;4.05;3.03;;;22.90;99.90;;;19.65;100.00;100869.16;3525752;39;100523;-82
2021/08/05 07:51:12;;;;;;;3.22;2.70;;;23.00;99.90;;;19.78;100.00;100850.16;3525834;39;100964;-81
2021/08/05 07:53:40;;;;;;;4.40;3.17;;;22.30;99.90;;;19.21;100.00;100832.38;3525671;39;100338;-82
2021/08/05 07:56:07;;;;;;;4.13;2.65;;;23.80;99.90;;;19.60;100.00;100818.19;3525060;39;101047;-84
2021/08/05 07:58:34;;;;;;;3.53;2.65;;;24.40;99.90;;;19.91;100.00;100806.75;3524735;39;101396;-83
2021/08/05 08:01:01;;;;;;;2.72;2.45;;;24.00;99.90;;;20.41;100.00;100780.06;3515343;39;102326;-82
2021/08/05 08:03:28;;;;;;;2.08;1.80;;;23.90;99.90;;;21.22;100.00;100881.22;3515220;39;100032;-83
2021/08/05 08:05:55;;;;;;;3.67;1.95;;;24.20;99.90;;;21.22;100.00;100956.59;3525902;39;100432;-81
2021/08/05 08:08:22;;;;;;;2.30;2.10;;;24.50;99.90;;;21.29;100.00;101112.56;3524826;39;101047;-82
2021/08/05 08:10:50;;;;;;;3.78;2.33;;;24.70;99.90;;;20.44;100.00;101065.91;3523554;39;102567;-82
2021/08/05 08:13:18;;;;;;;3.53;2.33;;;25.70;99.10;;;19.95;100.00;101060.63;3525832;39;100268;-81
2021/08/05 08:15:46;;;;;;;3.55;1.95;;;24.90;97.00;;;20.77;100.00;101071.41;3526906;39;100767;-82
2021/08/05 08:18:13;;;;;;;2.25;1.90;;;24.80;96.60;;;20.94;100.00;101049.28;3529960;39;101138;-82
2021/08/05 08:20:40;;;;;;;2.80;1.73;;;25.50;96.20;;;20.86;100.00;101036.72;3521167;39;102326;-83
2021/08/05 08:23:07;;;;;;;2.58;1.55;;;25.40;95.20;;;21.12;100.00;101011.41;3542682;39;99311;-82
2021/08/05 08:25:34;;;;;;;2.95;1.88;;;26.40;94.90;;;21.55;100.00;100992.75;3532681;39;99923;-80
2021/08/05 08:28:03;;;;;;;2.42;2.10;;;25.70;94.30;;;20.26;100.00;101019.41;3514998;39;102771;-83
2021/08/05 08:30:30;;;;;;;3.28;2.03;;;25.90;91.90;;;20.85;100.00;101062.25;3516037;39;100889;-82
2021/08/05 08:32:58;;;;;;;2.78;1.67;;;25.80;90.90;;;21.32;100.00;101076.75;3525676;39;99920;-84
2021/08/05 08:35:25;;;;;;;2.05;1.50;;;26.60;91.40;;;22.14;100.00;101114.38;3516611;39;102894;-81
2021/08/05 08:37:52;;;;;;;1.48;1.38;;;26.70;91.50;;;22.81;100.00;101253.09;3524425;39;101779;-84
2021/08/05 08:40:22;;;;;;;1.92;1.67;;;26.90;91.40;;;21.70;100.00;100162.69;3528403;39;100244;-84
2021/08/05 08:42:50;;;;;;;4.50;2.20;;;26.70;88.00;;;19.88;100.00;100174.47;3525653;39;99899;-81
2021/08/05 08:45:19;;;;;;;2.83;1.80;;;26.50;78.10;;;20.20;100.00;100258.59;3534686;39;100901;-81
2021/08/05 08:47:53;;;;;;;2.47;1.85;;;26.90;78.40;;;21.43;100.00;100301.09;3535565;39;100657;-82
2021/08/05 08:50:24;;;;;;;1.98;1.52;;;26.90;79.90;;;22.35;100.00;100251.78;3525645;39;100180;-81
2021/08/05 08:52:55;;;;;;;1.40;1.30;;;26.90;80.80;;;21.65;100.00;100161.72;3528177;39;100045;-82
2021/08/05 08:55:24;;;;;;;1.60;1.13;;;27.60;81.10;;;22.36;100.00;100145.25;3535718;39;100250;-81
2021/08/05 08:57:57;;;;;;;2.08;1.70;;;27.40;80.00;;;20.82;100.00;100129.81;3546698;39;100812;-83
2021/08/05 09:00:25;;;;;;;1.30;1.20;;;27.70;74.00;;;21.09;100.00;100171.09;3549024;39;100818;-82
2021/08/05 09:02:52;;;;;;;1.98;1.33;;;28.00;73.40;;;21.23;100.00;100191.66;3529575;39;99984;-81
2021/08/05 09:05:20;;;;;;;1.88;1.60;;;27.50;73.80;;;21.28;100.00;100177.34;3533482;39;100489;-83
2021/08/05 09:07:47;;;;;;;1.60;1.50;;;28.20;73.50;;;21.25;100.00;100169.69;3532970;39;102833;-80
2021/08/05 09:10:15;;;;;;;2.25;1.42;;;27.30;72.40;;;20.37;100.00;100159.22;3528896;39;102072;-80
2021/08/05 09:12:46;;;;;;;2.72;1.58;;;28.00;71.30;;;21.02;100.00;100202.97;3525114;39;99710;-84
2021/08/05 09:15:31;;;;;;;3.20;1.65;;;27.20;72.00;;;20.52;100.00;100167.81;3525937;39;100679;-83
2021/08/05 09:18:00;;;;;;;1.40;1.25;;;27.40;71.60;;;21.21;100.00;100185.63;3563139;39;99316;-83
2021/08/05 09:20:27;;;;;;;3.78;1.80;;;27.00;72.10;;;21.11;100.00;100169.00;3592015;39;70148;-82
2021/08/05 09:22:54;;;;;;;1.73;1.30;;;27.00;71.80;;;21.45;100.00;100176.50;3558417;39;86029;-83
2021/08/05 09:25:31;;;;;;;1.60;1.27;;;27.00;72.00;;;21.62;100.00;100165.78;3594551;39;20354;-81
2021/08/05 09:28:12;;;;;;;1.92;1.77;;;26.80;71.60;;;21.05;100.00;100135.34;3595857;39;20907;-84
2021/08/05 09:30:41;;;;;;;2.15;1.60;;;27.00;70.00;;;20.65;100.00;100156.78;3597661;39;20582;-83
2021/08/05 09:33:13;;;;;;;2.28;1.83;;;27.00;68.80;;;20.75;100.00;100170.69;3591113;39;95016;-80
2021/08/05 09:35:42;;;;;;;2.13;1.92;;;26.90;69.60;;;20.86;100.00;100182.69;3590572;39;87489;-81
2021/08/05 09:38:23;;;;;;;1.48;1.38;;;26.80;69.50;;;21.41;100.00;100160.84;3590465;39;82381;-80
2021/08/05 09:41:06;;;;;;;2.78;1.27;;;26.70;71.00;;;21.76;100.00;100152.78;3577408;39;74080;-81
2021/08/05 09:43:33;;;;;;;3.08;2.15;;;26.80;71.30;;;20.66;100.00;100133.97;3582653;39;64472;-82
2021/08/05 09:46:00;;;;;;;1.50;1.25;;;27.20;71.30;;;21.01;100.00;100147.78;3597356;39;74117;-82
2021/08/05 09:48:37;;;;;;;3.40;1.60;;;26.70;71.00;;;20.61;100.00;100152.88;3591380;39;23952;-82
2021/08/05 09:51:14;;;;;;;1.50;1.40;;;27.20;69.90;;;20.86;100.00;100171.00;3598814;39;20467;-82
2021/08/05 09:54:03;;;;;;;5.65;1.77;;;26.50;69.50;;;20.97;100.00;100126.69;3591664;39;20569;-82
2021/08/05 09:56:32;;;;;;;3.33;2.15;;;26.40;69.90;;;20.72;100.00;100118.66;3589857;39;20270;-80
2021/08/05 09:59:11;;;;;;;1.63;1.50;;;27.00;69.60;;;20.33;100.00;100119.91;3583666;39;83314;-82
2021/08/05 10:01:59;;;;;;;1.40;1.30;;;26.20;68.70;;;21.30;100.00;100134.41;3589041;39;40328;-81
2021/08/05 10:04:31;;;;;;;2.75;1.55;;;26.30;70.20;;;20.99;100.00;100113.69;3590585;39;67137;-81
2021/08/05 10:07:04;;;;;;;2.53;1.80;;;26.10;69.00;;;20.48;100.00;100108.69;3580173;39;98493;-83
2021/08/05 10:09:33;;;;;;;3.65;1.40;;;26.10;68.00;;;20.16;100.00;100116.94;3574092;39;94435;-82